CDT,Max TemperatureF,Mean TemperatureF,Min TemperatureF,Max Dew PointF,MeanDew PointF,Min DewpointF,Max Humidity, Mean Humidity, Min Humidity, Max Sea Level PressureIn, Mean Sea Level PressureIn, Min Sea Level PressureIn, Max VisibilityMiles, Mean VisibilityMiles, Min VisibilityMiles, Max Wind SpeedMPH, Mean Wind SpeedMPH, Max Gust SpeedMPH,PrecipitationIn, CloudCover, Events, WindDirDegrees
2012-9-1,91,76,62,54,49,41,72,44,26,29.99,29.80,29.68,10,9,6,20,12,26,0.00,0,,175
2012-9-2,80,66,53,54,42,27,94,49,14,29.87,29.82,29.76,10,9,6,24,10,32,0.00,0,,251
2012-9-3,80,64,48,39,37,32,66,40,20,29.93,29.89,29.84,10,9,6,14,7,21,0.00,0,,282
2012-9-4,73,58,42,43,36,28,82,49,22,29.98,29.92,29.87,10,9,7,26,7,32,0.00,1,,291
2012-9-5,73,60,48,45,41,37,82,55,27,29.98,29.95,29.90,10,10,8,20,12,25,0.00,1,,293
2012-9-6,66,57,44,50,43,37,88,62,35,30.17,30.04,29.95,10,10,7,16,8,25,0.00,5,Rain,331
2012-9-7,73,54,35,45,37,32,100,60,23,30.25,30.18,30.08,10,10,6,17,7,28,0.00,0,,279
2012-9-8,68,54,41,45,36,28,87,50,23,30.29,30.20,30.07,10,9,1,16,11,24,0.00,0,,341
2012-9-9,87,63,39,39,34,30,87,41,13,30.18,29.93,29.68,10,8,2,20,11,28,0.00,0,Rain,184
2012-9-10,89,72,55,39,36,28,54,31,13,29.68,29.61,29.57,10,6,0,25,12,31,0.00,0,Thunderstorm,245
2012-9-11,68,58,48,37,28,19,66,35,16,30.02,29.87,29.67,10,10,9,25,14,34,0.00,0,,292
2012-9-12,66,52,39,27,22,16,53,32,15,30.27,30.16,30.02,10,10,6,28,16,39,0.00,0,,277
2012-9-13,71,55,39,32,27,23,65,41,17,30.35,30.26,30.19,10,10,6,21,11,29,0.00,0,,255
2012-9-14,77,56,35,36,33,27,87,48,21,30.35,30.21,29.99,10,10,5,18,9,25,0.00,0,,191
2012-9-15,80,64,48,37,33,28,54,33,18,30.08,29.97,29.88,10,10,8,17,14,26,0.00,0,,326
2012-9-16,59,49,39,46,41,30,100,70,36,30.22,30.16,30.08,10,10,2,15,7,30,0.31,3,Rain-Thunderstorm,324
2012-9-17,57,44,32,39,33,25,100,70,29,30.23,30.16,30.00,10,10,7,12,8,,0.00,1,Rain,304
2012-9-18,80,63,46,37,32,23,50,33,15,29.99,29.80,29.70,10,10,9,24,13,33,0.00,1,,270
2012-9-19,62,54,46,37,31,23,71,44,23,30.06,29.97,29.77,10,10,10,29,16,43,0.00,0,,313
2012-9-20,66,52,39,32,31,27,70,44,26,30.05,29.98,29.93,10,10,7,15,8,23,0.00,2,,274
2012-9-21,66,50,33,36,31,21,81,53,26,30.23,30.05,29.96,10,10,10,23,11,30,0.00,0,,333
2012-9-22,59,40,21,25,18,10,93,49,16,30.36,30.30,30.23,10,10,9,9,4,,0.00,0,,123
2012-9-23,71,50,28,34,27,18,80,46,20,30.27,30.18,30.03,10,10,7,12,4,,0.00,0,,201
2012-9-24,77,60,44,43,36,32,76,43,27,30.02,29.92,29.87,10,10,6,16,10,21,0.00,0,,297
2012-9-25,71,52,32,37,31,21,100,56,15,30.00,29.95,29.92,10,10,6,10,4,,0.02,0,,72
2012-9-26,78,58,37,39,35,27,81,50,23,30.06,30.03,30.00,10,10,5,13,4,17,0.00,1,,110
2012-9-27,73,60,46,41,39,37,76,55,31,30.12,30.09,30.04,10,9,2,9,4,16,0.00,1,,59
2012-9-28,80,60,39,45,40,36,93,54,23,30.13,30.07,29.98,10,8,1,15,6,22,0.00,0,,167
2012-9-29,84,65,46,39,36,32,66,36,19,29.99,29.90,29.83,10,10,8,20,11,25,0.00,0,,201
2012-9-30,66,56,46,50,44,37,100,68,35,30.21,30.05,29.89,10,10,5,23,13,30,0.03,1,Rain,312